createdAt,value
2023-01-30T00:00:46.019Z,100064.47
2023-01-30T00:03:18.358Z,100062.53
2023-01-30T00:05:47.511Z,100061.94
2023-01-30T00:08:16.129Z,100065.56
2023-01-30T00:10:53.768Z,100051.19
2023-01-30T00:13:27.746Z,100062.00
2023-01-30T00:16:07.591Z,100051.19
2023-01-30T00:18:37.928Z,100049.06
2023-01-30T00:21:17.156Z,100048.13
2023-01-30T00:24:05.584Z,100049.78
2023-01-30T00:26:44.349Z,100042.41
2023-01-30T00:29:17.384Z,100035.00
2023-01-30T00:31:54.452Z,100039.06
2023-01-30T00:34:25.956Z,100030.75
2023-01-30T00:39:48.103Z,100019.88
2023-01-30T00:42:36.182Z,100020.81
2023-01-30T00:45:24.345Z,100006.13
2023-01-30T00:47:55.331Z,100001.81
2023-01-30T00:50:24.045Z,99996.19
2023-01-30T00:52:56.256Z,99990.59
2023-01-30T00:55:25.068Z,99995.69
2023-01-30T00:57:53.950Z,99990.81
2023-01-30T01:00:23.364Z,99995.34
2023-01-30T01:03:08.586Z,99989.03
2023-01-30T01:05:37.199Z,99974.63
2023-01-30T01:08:06.866Z,99972.91
2023-01-30T01:10:37.591Z,99963.72
2023-01-30T01:13:07.678Z,99957.81
2023-01-30T01:15:41.229Z,99942.63
2023-01-30T01:18:22.193Z,99940.19
2023-01-30T01:20:50.847Z,99942.84
2023-01-30T01:23:20.022Z,99938.22
2023-01-30T01:25:56.046Z,99937.09
2023-01-30T01:28:25.495Z,99935.88
2023-01-30T01:30:56.233Z,99942.91
2023-01-30T01:33:29.702Z,99936.31
2023-01-30T01:36:04.725Z,99936.09
2023-01-30T01:38:41.954Z,99925.66
2023-01-30T01:41:12.898Z,99929.09
2023-01-30T01:44:08.446Z,99925.88
2023-01-30T01:46:48.993Z,99915.47
2023-01-30T01:49:25.245Z,99909.56
2023-01-30T01:52:00.303Z,99909.03
2023-01-30T01:54:34.963Z,99915.44
2023-01-30T01:57:12.069Z,99905.88
2023-01-30T01:59:45.349Z,99893.69
2023-01-30T02:02:15.986Z,99888.88
2023-01-30T02:05:04.735Z,99892.25
2023-01-30T02:07:39.064Z,99892.13
2023-01-30T02:10:18.402Z,99876.84
2023-01-30T02:12:58.441Z,99871.16
2023-01-30T02:15:35.391Z,99870.50
2023-01-30T02:18:18.505Z,99874.84
2023-01-30T02:21:10.140Z,99852.06
2023-01-30T02:24:05.442Z,99849.81
2023-01-30T02:26:57.212Z,99846.28
2023-01-30T02:30:18.941Z,99850.38
2023-01-30T02:32:55.993Z,99847.91
2023-01-30T02:35:35.287Z,99852.84
2023-01-30T02:38:16.754Z,99830.03
2023-01-30T02:40:52.291Z,99827.69
2023-01-30T02:43:27.969Z,99831.84
2023-01-30T02:46:02.464Z,99817.94
2023-01-30T02:48:51.141Z,99816.09
2023-01-30T02:51:31.317Z,99813.97
2023-01-30T02:54:00.846Z,99796.31
2023-01-30T02:56:33.039Z,99795.00
2023-01-30T02:59:08.429Z,99807.72
2023-01-30T03:02:03.945Z,99802.63
2023-01-30T03:04:47.386Z,99812.75
2023-01-30T03:07:29.005Z,99800.25
2023-01-30T03:10:02.871Z,99778.75
2023-01-30T03:13:09.574Z,99772.38
2023-01-30T03:15:43.382Z,99779.84
2023-01-30T03:18:16.071Z,99790.13
2023-01-30T03:20:46.632Z,99775.91
2023-01-30T03:23:18.392Z,99786.13
2023-01-30T03:25:49.694Z,99782.31
2023-01-30T03:28:23.741Z,99782.41
2023-01-30T03:31:03.671Z,99780.84
2023-01-30T03:33:37.778Z,99785.56
2023-01-30T03:36:32.846Z,99771.34
2023-01-30T03:39:10.229Z,99768.41
2023-01-30T03:41:39.347Z,99763.31
2023-01-30T03:44:11.024Z,99754.38
2023-01-30T03:46:43.679Z,99753.97
2023-01-30T03:49:17.734Z,99746.50
2023-01-30T03:51:50.606Z,99754.25
2023-01-30T03:54:19.253Z,99749.13
2023-01-30T03:56:50.325Z,99757.69
2023-01-30T03:59:21.352Z,99743.75
2023-01-30T04:01:59.069Z,99746.69
2023-01-30T04:04:30.910Z,99753.16
2023-01-30T04:07:10.014Z,99748.22
2023-01-30T04:09:47.181Z,99761.13
2023-01-30T04:12:18.549Z,99745.22
2023-01-30T04:15:02.792Z,99736.34
2023-01-30T04:17:52.483Z,99742.03
2023-01-30T04:20:42.797Z,99721.41
2023-01-30T04:23:19.830Z,99727.06
2023-01-30T04:25:51.597Z,99721.41
2023-01-30T04:28:32.624Z,99699.41
2023-01-30T04:31:06.259Z,99696.63
2023-01-30T04:33:43.224Z,99692.06
2023-01-30T04:36:16.528Z,99699.41
2023-01-30T04:38:56.545Z,99701.56
2023-01-30T04:41:29.709Z,99713.31
2023-01-30T04:44:02.361Z,99699.13
2023-01-30T04:46:52.713Z,99705.16
2023-01-30T04:49:25.520Z,99703.88
2023-01-30T04:52:04.892Z,99719.00
2023-01-30T04:54:37.093Z,99706.34
2023-01-30T04:57:08.700Z,99694.69
2023-01-30T04:59:37.167Z,99704.97
2023-01-30T05:02:21.227Z,99698.28
2023-01-30T05:04:51.931Z,99698.38
2023-01-30T05:07:21.353Z,99694.25
2023-01-30T05:09:51.452Z,99696.94
2023-01-30T05:12:25.127Z,99694.72
2023-01-30T05:14:57.191Z,99692.81
2023-01-30T05:17:30.403Z,99683.63
2023-01-30T05:20:01.629Z,99673.78
2023-01-30T05:22:30.895Z,99678.81
2023-01-30T05:25:05.588Z,99671.88
2023-01-30T05:27:37.495Z,99673.88
2023-01-30T05:30:20.749Z,99658.34
2023-01-30T05:32:52.209Z,99658.88
2023-01-30T05:35:20.704Z,99649.72
2023-01-30T05:37:51.568Z,99656.09
2023-01-30T05:40:24.077Z,99669.56
2023-01-30T05:42:53.200Z,99652.34
2023-01-30T05:45:24.345Z,99678.38
2023-01-30T05:47:58.483Z,99659.81
2023-01-30T05:50:35.964Z,99674.19
2023-01-30T05:53:07.147Z,99668.44
2023-01-30T05:55:47.556Z,99671.69
2023-01-30T05:58:21.078Z,99687.88
2023-01-30T06:00:52.782Z,99674.97
2023-01-30T06:03:29.437Z,99669.56
2023-01-30T06:05:58.820Z,99654.75
2023-01-30T06:08:29.482Z,99652.69
2023-01-30T06:11:07.546Z,99636.91
2023-01-30T06:13:44.348Z,99631.34
2023-01-30T06:16:24.466Z,99634.81
2023-01-30T06:18:53.963Z,99661.09
2023-01-30T06:21:24.856Z,99681.09
2023-01-30T06:24:01.385Z,99657.53
2023-01-30T06:26:41.422Z,99669.06
2023-01-30T06:29:17.788Z,99660.06
2023-01-30T06:31:48.604Z,99650.34
2023-01-30T06:34:29.122Z,99646.06
2023-01-30T06:37:00.949Z,99636.75
2023-01-30T06:39:39.336Z,99623.13
2023-01-30T06:42:17.261Z,99621.44
2023-01-30T06:44:54.401Z,99592.84
2023-01-30T06:47:25.080Z,99599.03
2023-01-30T06:49:57.227Z,99591.25
2023-01-30T06:52:28.601Z,99600.41
2023-01-30T06:54:59.792Z,99608.88
2023-01-30T06:57:31.995Z,99605.56
2023-01-30T07:00:06.023Z,99621.25
2023-01-30T07:02:43.351Z,99620.56
2023-01-30T07:05:22.002Z,99612.25
2023-01-30T07:07:52.535Z,99618.03
2023-01-30T07:10:29.610Z,99618.69
2023-01-30T07:13:09.190Z,99598.09
2023-01-30T07:15:47.262Z,99591.00
2023-01-30T07:18:18.998Z,99596.97
2023-01-30T07:20:48.990Z,99605.38
2023-01-30T07:23:20.739Z,99609.16
2023-01-30T07:25:53.171Z,99613.03
2023-01-30T07:28:23.893Z,99612.09
2023-01-30T07:30:58.048Z,99603.28
2023-01-30T07:33:26.398Z,99624.00
2023-01-30T07:36:13.480Z,99626.97
2023-01-30T07:38:50.227Z,99639.78
2023-01-30T07:41:19.575Z,99650.91
2023-01-30T07:44:04.766Z,99649.78
2023-01-30T07:46:35.238Z,99647.66
2023-01-30T07:49:04.919Z,99628.59
2023-01-30T07:51:33.652Z,99632.63
2023-01-30T07:54:04.937Z,99651.53
2023-01-30T07:56:34.756Z,99643.75
2023-01-30T07:59:14.661Z,99631.44
2023-01-30T08:01:47.291Z,99623.41
2023-01-30T08:04:18.333Z,99644.03
2023-01-30T08:06:50.792Z,99622.16
2023-01-30T08:09:20.224Z,99613.91
2023-01-30T08:11:48.899Z,99657.19
2023-01-30T08:14:25.525Z,99615.69
2023-01-30T08:16:54.566Z,99625.25
2023-01-30T08:19:23.748Z,99613.50
2023-01-30T08:21:52.591Z,99612.34
2023-01-30T08:24:26.644Z,99592.97
2023-01-30T08:26:57.034Z,99606.09
2023-01-30T08:29:27.832Z,99615.50
2023-01-30T08:31:58.759Z,99590.84
2023-01-30T08:34:31.933Z,99558.03
2023-01-30T08:37:12.994Z,99575.06
2023-01-30T08:39:43.574Z,99543.41
2023-01-30T08:42:19.037Z,99543.69
2023-01-30T08:44:50.985Z,99573.13
2023-01-30T08:47:20.496Z,99535.19
2023-01-30T08:49:53.029Z,99523.56
2023-01-30T08:52:22.576Z,99523.06
2023-01-30T08:54:53.753Z,99518.91
2023-01-30T08:57:32.798Z,99531.91
2023-01-30T09:00:06.325Z,99531.47
2023-01-30T09:02:41.076Z,99558.59
2023-01-30T09:05:18.219Z,99514.84
2023-01-30T09:07:48.437Z,99517.81
2023-01-30T09:10:28.083Z,99499.56
2023-01-30T09:12:58.390Z,99514.78
2023-01-30T09:15:36.232Z,99544.34
2023-01-30T09:18:05.794Z,99521.66
2023-01-30T09:20:40.976Z,99491.56
2023-01-30T09:23:12.660Z,99512.63
2023-01-30T09:25:44.113Z,99511.69
2023-01-30T09:28:18.251Z,99531.84
2023-01-30T09:30:50.432Z,99517.63
2023-01-30T09:33:27.930Z,99486.09
2023-01-30T09:35:58.636Z,99509.22
2023-01-30T09:38:31.463Z,99538.44
2023-01-30T09:41:15.180Z,99471.06
2023-01-30T09:44:10.022Z,99467.38
2023-01-30T09:46:50.043Z,99466.03
2023-01-30T09:49:35.932Z,99422.97
2023-01-30T09:52:13.389Z,99448.81
2023-01-30T09:57:28.960Z,99422.09
2023-01-30T10:00:13.417Z,99407.81
2023-01-30T10:02:52.937Z,99401.31
2023-01-30T10:05:25.586Z,99402.88
2023-01-30T10:08:04.943Z,99377.44
2023-01-30T10:10:55.029Z,99388.00
2023-01-30T10:13:43.874Z,99340.31
2023-01-30T10:16:26.882Z,99348.34
2023-01-30T10:19:36.727Z,99373.56
2023-01-30T10:22:14.871Z,99350.19
2023-01-30T10:24:56.443Z,99376.50
2023-01-30T10:27:27.382Z,99336.25
2023-01-30T10:29:59.560Z,99345.66
2023-01-30T10:32:31.959Z,99337.88
2023-01-30T10:35:07.727Z,99311.19
2023-01-30T10:37:48.371Z,99311.06
2023-01-30T10:40:30.512Z,99348.03
2023-01-30T10:43:07.623Z,99331.03
2023-01-30T10:45:47.907Z,99303.38
2023-01-30T10:48:51.526Z,99281.19
2023-01-30T10:51:37.564Z,99275.47
2023-01-30T10:54:18.064Z,99277.31
2023-01-30T10:57:00.663Z,99289.75
2023-01-30T10:59:43.579Z,99262.50
2023-01-30T11:02:25.851Z,99274.84
2023-01-30T11:05:04.809Z,99277.25
2023-01-30T11:07:36.708Z,99272.56
2023-01-30T11:10:19.460Z,99306.22
2023-01-30T11:12:49.981Z,99304.56
2023-01-30T11:15:24.115Z,99306.88
2023-01-30T11:17:52.836Z,99248.03
2023-01-30T11:20:24.369Z,99266.41
2023-01-30T11:23:08.984Z,99271.41
2023-01-30T11:26:05.514Z,99253.19
2023-01-30T11:28:43.821Z,99255.19
2023-01-30T11:31:31.628Z,99214.25
2023-01-30T11:34:22.099Z,99210.84
2023-01-30T11:36:51.361Z,99213.59
2023-01-30T11:39:26.859Z,99207.09
2023-01-30T11:42:04.767Z,99211.63
2023-01-30T11:44:37.146Z,99238.66
2023-01-30T11:47:22.306Z,99190.97
2023-01-30T11:50:07.220Z,99178.97
2023-01-30T11:52:48.410Z,99220.19
2023-01-30T11:56:00.376Z,99168.78
2023-01-30T11:58:40.282Z,99146.19
2023-01-30T12:01:10.958Z,99165.66
2023-01-30T12:03:49.759Z,99177.09
2023-01-30T12:06:34.562Z,99123.75
2023-01-30T12:09:06.114Z,99137.06
2023-01-30T12:11:49.450Z,99143.19
2023-01-30T12:14:29.090Z,99116.84
2023-01-30T12:17:06.310Z,99178.66
2023-01-30T12:19:42.831Z,99140.06
2023-01-30T12:22:23.019Z,99111.06
2023-01-30T12:24:59.770Z,99103.88
2023-01-30T12:27:50.379Z,99125.16
2023-01-30T12:30:28.388Z,99153.78
2023-01-30T12:33:03.808Z,99142.22
2023-01-30T12:36:02.672Z,99155.09
2023-01-30T12:38:48.778Z,99127.78
2023-01-30T12:41:31.661Z,99155.56
2023-01-30T12:44:17.181Z,99146.56
2023-01-30T12:47:01.497Z,99150.41
2023-01-30T12:49:41.381Z,99150.88
2023-01-30T12:52:22.721Z,99163.09
2023-01-30T12:54:59.522Z,99170.13
2023-01-30T12:57:35.834Z,99150.19
2023-01-30T13:00:54.862Z,99153.75
2023-01-30T13:03:33.014Z,99156.50
2023-01-30T13:06:12.716Z,99174.69
2023-01-30T13:08:55.909Z,99186.50
2023-01-30T13:11:43.046Z,99161.22
2023-01-30T13:14:22.450Z,99181.72
2023-01-30T13:17:20.291Z,99175.31
2023-01-30T13:19:59.203Z,99208.84
2023-01-30T13:22:39.323Z,99183.66
2023-01-30T13:25:23.276Z,99167.13
2023-01-30T13:27:56.772Z,99174.94
2023-01-30T13:30:32.223Z,99177.47
2023-01-30T13:33:18.365Z,99182.38
2023-01-30T13:35:52.780Z,99173.94
2023-01-30T13:38:24.125Z,99191.34
2023-01-30T13:41:00.543Z,99178.22
2023-01-30T13:43:34.772Z,99173.34
2023-01-30T13:46:10.751Z,99165.56
2023-01-30T13:48:51.323Z,99174.00
2023-01-30T13:51:43.555Z,99195.06
2023-01-30T13:54:27.100Z,99169.38
2023-01-30T13:57:08.053Z,99155.44
2023-01-30T14:00:44.668Z,99156.28
2023-01-30T14:03:47.815Z,99153.13
2023-01-30T14:06:41.106Z,99163.88
2023-01-30T14:09:30.068Z,99138.69
2023-01-30T14:12:02.169Z,99131.00
2023-01-30T14:14:41.449Z,99151.00
2023-01-30T14:17:22.676Z,99133.50
2023-01-30T14:20:00.652Z,99131.50
2023-01-30T14:22:44.623Z,99147.81
2023-01-30T14:25:48.263Z,99095.09
2023-01-30T14:28:45.482Z,99081.16
2023-01-30T14:31:48.010Z,99105.72
2023-01-30T14:34:50.723Z,99107.47
2023-01-30T14:37:52.850Z,99087.75
2023-01-30T14:40:53.545Z,99082.63
2023-01-30T14:43:53.582Z,99096.94
2023-01-30T14:46:58.130Z,99096.81
2023-01-30T14:49:50.053Z,99099.13
2023-01-30T14:52:32.514Z,99113.28
2023-01-30T14:55:23.920Z,99102.50
2023-01-30T14:57:56.390Z,99141.47
2023-01-30T15:00:30.435Z,99131.56
2023-01-30T15:03:00.477Z,99142.88
2023-01-30T15:05:35.747Z,99138.94
2023-01-30T15:08:10.686Z,99146.28
2023-01-30T15:11:23.382Z,99157.13
2023-01-30T15:14:09.790Z,99136.25
2023-01-30T15:17:00.407Z,99176.66
2023-01-30T15:19:49.019Z,99138.56
2023-01-30T15:22:25.772Z,99147.03
2023-01-30T15:25:32.273Z,99164.72
2023-01-30T15:28:25.271Z,99193.28
2023-01-30T15:31:06.790Z,99120.22
2023-01-30T15:33:50.927Z,99160.78
2023-01-30T15:36:23.917Z,99145.78
2023-01-30T15:39:03.606Z,99124.78
2023-01-30T15:41:37.792Z,99200.47
2023-01-30T15:44:30.501Z,99161.84
2023-01-30T15:47:19.476Z,99149.69
2023-01-30T15:50:09.395Z,99175.38
2023-01-30T15:52:47.774Z,99191.19
2023-01-30T15:55:24.137Z,99203.16
2023-01-30T15:57:57.894Z,99205.31
2023-01-30T16:00:35.019Z,99232.22
2023-01-30T16:03:07.037Z,99215.53
2023-01-30T16:05:38.591Z,99214.28
2023-01-30T16:08:25.343Z,99225.97
2023-01-30T16:10:53.949Z,99243.59
2023-01-30T16:13:24.702Z,99232.53
2023-01-30T16:16:18.382Z,99264.72
2023-01-30T16:18:49.991Z,99259.44
2023-01-30T16:21:28.477Z,99264.28
2023-01-30T16:24:06.659Z,99278.72
2023-01-30T16:26:39.991Z,99291.91
2023-01-30T16:29:13.384Z,99274.72
2023-01-30T16:31:48.997Z,99254.56
2023-01-30T16:34:47.066Z,99251.94
2023-01-30T16:37:29.297Z,99271.75
2023-01-30T16:40:13.798Z,99290.78
2023-01-30T16:42:58.788Z,99296.81
2023-01-30T16:46:06.621Z,99308.59
2023-01-30T16:48:41.642Z,99296.47
2023-01-30T16:51:30.171Z,99338.28
2023-01-30T16:54:06.756Z,99264.69
2023-01-30T16:56:37.505Z,99273.25
2023-01-30T16:59:16.287Z,99268.25
2023-01-30T17:01:45.367Z,99262.88
2023-01-30T17:04:41.806Z,99264.13
2023-01-30T17:07:35.458Z,99260.53
2023-01-30T17:10:10.740Z,99251.78
2023-01-30T17:12:48.461Z,99270.25
2023-01-30T17:15:39.757Z,99252.75
2023-01-30T17:18:11.917Z,99254.75
2023-01-30T17:20:52.432Z,99265.41
2023-01-30T17:23:25.399Z,99263.72
2023-01-30T17:25:59.913Z,99257.81
2023-01-30T17:28:41.356Z,99276.81
2023-01-30T17:31:21.576Z,99282.75
2023-01-30T17:33:54.434Z,99259.97
2023-01-30T17:36:35.949Z,99267.06
2023-01-30T17:39:09.352Z,99242.47
2023-01-30T17:41:39.405Z,99284.34
2023-01-30T17:44:11.119Z,99246.19
2023-01-30T17:46:48.194Z,99260.41
2023-01-30T17:49:27.204Z,99261.38
2023-01-30T17:52:26.515Z,99263.69
2023-01-30T17:55:05.489Z,99251.94
2023-01-30T17:57:36.085Z,99271.78
2023-01-30T18:00:08.258Z,99270.31
2023-01-30T18:03:02.297Z,99285.94
2023-01-30T18:05:40.083Z,99267.03
2023-01-30T18:08:17.808Z,99274.56
2023-01-30T18:10:50.496Z,99293.63
2023-01-30T18:13:25.428Z,99293.94
2023-01-30T18:16:08.853Z,99312.44
2023-01-30T18:18:47.749Z,99345.88
2023-01-30T18:21:27.577Z,99280.84
2023-01-30T18:24:01.812Z,99290.66
2023-01-30T18:26:40.622Z,99271.88
2023-01-30T18:29:23.603Z,99282.53
2023-01-30T18:32:16.353Z,99289.16
2023-01-30T18:34:48.790Z,99266.75
2023-01-30T18:37:40.995Z,99298.31
2023-01-30T18:40:18.727Z,99283.34
2023-01-30T18:43:05.174Z,99294.66
2023-01-30T18:48:46.331Z,99290.72
2023-01-30T18:51:27.199Z,99321.44
2023-01-30T18:54:06.443Z,99288.59
2023-01-30T18:56:51.723Z,99345.84
2023-01-30T18:59:29.290Z,99273.13
2023-01-30T19:02:15.760Z,99273.38
2023-01-30T19:04:56.261Z,99271.25
2023-01-30T19:07:36.155Z,99335.06
2023-01-30T19:10:19.166Z,99306.28
2023-01-30T19:13:32.385Z,99308.00
2023-01-30T19:16:08.750Z,99310.41
2023-01-30T19:21:45.224Z,99373.69
2023-01-30T19:24:35.416Z,99312.94
2023-01-30T19:27:17.748Z,99315.16
2023-01-30T19:29:51.450Z,99326.88
2023-01-30T19:32:26.302Z,99309.56
2023-01-30T19:35:07.800Z,99306.72
2023-01-30T19:37:38.767Z,99316.78
2023-01-30T19:40:23.431Z,99319.53
2023-01-30T19:43:10.874Z,99307.81
2023-01-30T19:46:06.289Z,99314.78
2023-01-30T19:48:46.326Z,99310.84
2023-01-30T19:51:29.410Z,99310.34
2023-01-30T19:54:05.691Z,99344.06
2023-01-30T19:56:40.388Z,99306.00
2023-01-30T19:59:14.633Z,99300.72
2023-01-30T20:01:47.316Z,99374.78
2023-01-30T20:04:26.769Z,99346.69
2023-01-30T20:07:15.152Z,99335.50
2023-01-30T20:09:53.785Z,99315.63
2023-01-30T20:12:25.696Z,99323.03
2023-01-30T20:14:57.501Z,99325.56
2023-01-30T20:17:39.724Z,99314.16
2023-01-30T20:20:19.979Z,99310.88
2023-01-30T20:22:55.165Z,99318.09
2023-01-30T20:25:31.110Z,99341.97
2023-01-30T20:28:02.970Z,99314.25
2023-01-30T20:30:54.178Z,99329.38
2023-01-30T20:33:38.515Z,99304.03
2023-01-30T20:36:16.116Z,99312.91
2023-01-30T20:39:04.586Z,99306.88
2023-01-30T20:41:38.713Z,99305.59
2023-01-30T20:44:24.437Z,99354.84
2023-01-30T20:47:01.051Z,99280.91
2023-01-30T20:49:44.633Z,99305.72
2023-01-30T20:52:24.371Z,99383.56
2023-01-30T20:55:00.285Z,99304.78
2023-01-30T20:57:52.482Z,99317.66
2023-01-30T21:00:42.737Z,99303.81
2023-01-30T21:03:27.423Z,99324.28
2023-01-30T21:06:41.281Z,99310.66
2023-01-30T21:09:30.653Z,99323.47
2023-01-30T21:12:02.105Z,99283.88
2023-01-30T21:14:40.353Z,99322.94
2023-01-30T21:17:24.205Z,99317.66
2023-01-30T21:19:57.877Z,99297.72
2023-01-30T21:22:40.207Z,99307.75
2023-01-30T21:25:25.045Z,99306.19
2023-01-30T21:27:56.936Z,99304.41
2023-01-30T21:30:28.015Z,99318.41
2023-01-30T21:32:59.940Z,99333.22
2023-01-30T21:35:30.695Z,99303.13
2023-01-30T21:38:32.132Z,99321.59
2023-01-30T21:41:20.956Z,99303.66
2023-01-30T21:43:49.983Z,99293.31
2023-01-30T21:46:34.264Z,99314.41
2023-01-30T21:49:04.739Z,99338.47
2023-01-30T21:51:41.211Z,99360.53
2023-01-30T21:54:15.459Z,99347.13
2023-01-30T21:57:02.023Z,99348.63
2023-01-30T21:59:32.710Z,99349.16
2023-01-30T22:02:10.388Z,99347.88
2023-01-30T22:04:41.147Z,99354.88
2023-01-30T22:07:17.587Z,99350.94
2023-01-30T22:09:49.766Z,99343.56
2023-01-30T22:12:18.579Z,99365.00
2023-01-30T22:14:51.908Z,99362.66
2023-01-30T22:17:21.872Z,99372.81
2023-01-30T22:19:54.179Z,99363.81
2023-01-30T22:22:28.569Z,99365.28
2023-01-30T22:25:18.494Z,99355.81
2023-01-30T22:27:56.135Z,99362.03
2023-01-30T22:30:28.171Z,99366.97
2023-01-30T22:32:58.995Z,99352.69
2023-01-30T22:35:36.111Z,99364.09
2023-01-30T22:38:07.292Z,99377.81
2023-01-30T22:40:50.422Z,99379.91
2023-01-30T22:43:23.209Z,99368.59
2023-01-30T22:46:00.623Z,99369.34
2023-01-30T22:48:39.952Z,99416.13
2023-01-30T22:51:17.031Z,99409.19
2023-01-30T22:53:57.515Z,99401.97
2023-01-30T22:56:35.837Z,99396.50
2023-01-30T22:59:07.527Z,99394.63
2023-01-30T23:01:38.324Z,99402.22
2023-01-30T23:04:21.075Z,99388.59
2023-01-30T23:06:55.809Z,99390.59
2023-01-30T23:09:36.844Z,99398.81
2023-01-30T23:12:40.713Z,99392.19
2023-01-30T23:15:10.844Z,99437.28
2023-01-30T23:17:56.758Z,99429.72
2023-01-30T23:20:27.740Z,99397.47
2023-01-30T23:22:56.404Z,99389.34
2023-01-30T23:25:25.739Z,99418.38
2023-01-30T23:27:58.014Z,99430.63
2023-01-30T23:30:29.581Z,99432.41
2023-01-30T23:32:58.360Z,99393.75
2023-01-30T23:35:29.651Z,99421.25
2023-01-30T23:38:18.123Z,99409.59
2023-01-30T23:40:51.809Z,99403.69
2023-01-30T23:43:24.684Z,99440.66
2023-01-30T23:48:40.838Z,99433.81
2023-01-30T23:51:10.218Z,99440.34
2023-01-30T23:53:47.579Z,99447.88
2023-01-30T23:56:18.759Z,99441.38
2023-01-30T23:58:51.421Z,99453.56
